sensor_id;sensor_type;location;lat;lon;timestamp;P1;durP1;ratioP1;P2;durP2;ratioP2
52554;SDS011;38455;52.710;6.502;2023-04-24T00:02:04;1.50;;;1.10;;
52554;SDS011;38455;52.710;6.502;2023-04-24T00:04:31;1.40;;;1.20;;
52554;SDS011;38455;52.710;6.502;2023-04-24T00:06:57;2.08;;;1.80;;
52554;SDS011;38455;52.710;6.502;2023-04-24T00:09:24;1.92;;;1.67;;
52554;SDS011;38455;52.710;6.502;2023-04-24T00:11:51;1.98;;;1.77;;
52554;SDS011;38455;52.710;6.502;2023-04-24T00:14:17;3.72;;;2.35;;
52554;SDS011;38455;52.710;6.502;2023-04-24T00:16:43;2.30;;;1.90;;
52554;SDS011;38455;52.710;6.502;2023-04-24T00:19:08;2.35;;;1.90;;
52554;SDS011;38455;52.710;6.502;2023-04-24T00:21:36;2.85;;;2.20;;
52554;SDS011;38455;52.710;6.502;2023-04-24T00:24:02;3.15;;;2.10;;
52554;SDS011;38455;52.710;6.502;2023-04-24T00:26:28;3.65;;;2.40;;
52554;SDS011;38455;52.710;6.502;2023-04-24T00:28:54;2.85;;;2.45;;
52554;SDS011;38455;52.710;6.502;2023-04-24T00:31:19;3.75;;;2.75;;
52554;SDS011;38455;52.710;6.502;2023-04-24T00:33:45;3.20;;;2.47;;
52554;SDS011;38455;52.710;6.502;2023-04-24T00:36:11;3.42;;;2.97;;
52554;SDS011;38455;52.710;6.502;2023-04-24T00:38:36;3.85;;;3.45;;
52554;SDS011;38455;52.710;6.502;2023-04-24T00:41:02;4.78;;;3.45;;
52554;SDS011;38455;52.710;6.502;2023-04-24T00:43:28;4.97;;;3.53;;
52554;SDS011;38455;52.710;6.502;2023-04-24T00:45:53;6.07;;;3.83;;
52554;SDS011;38455;52.710;6.502;2023-04-24T00:48:20;5.07;;;3.80;;
52554;SDS011;38455;52.710;6.502;2023-04-24T00:50:46;4.57;;;3.80;;
52554;SDS011;38455;52.710;6.502;2023-04-24T00:53:11;4.20;;;3.60;;
52554;SDS011;38455;52.710;6.502;2023-04-24T00:55:37;4.53;;;3.42;;
52554;SDS011;38455;52.710;6.502;2023-04-24T00:58:03;3.80;;;3.35;;
52554;SDS011;38455;52.710;6.502;2023-04-24T01:00:29;4.72;;;2.70;;
52554;SDS011;38455;52.710;6.502;2023-04-24T01:02:55;3.88;;;2.20;;
52554;SDS011;38455;52.710;6.502;2023-04-24T01:05:24;2.50;;;2.20;;
52554;SDS011;38455;52.710;6.502;2023-04-24T01:07:49;4.50;;;2.38;;
52554;SDS011;38455;52.710;6.502;2023-04-24T01:10:16;2.63;;;2.42;;
52554;SDS011;38455;52.710;6.502;2023-04-24T01:12:42;2.80;;;2.30;;
52554;SDS011;38455;52.710;6.502;2023-04-24T01:15:08;2.85;;;2.42;;
52554;SDS011;38455;52.710;6.502;2023-04-24T01:17:35;2.92;;;2.60;;
52554;SDS011;38455;52.710;6.502;2023-04-24T01:20:01;2.65;;;2.40;;
52554;SDS011;38455;52.710;6.502;2023-04-24T01:22:30;3.13;;;2.75;;
52554;SDS011;38455;52.710;6.502;2023-04-24T01:24:57;2.63;;;2.42;;
52554;SDS011;38455;52.710;6.502;2023-04-24T01:27:23;2.80;;;2.60;;
52554;SDS011;38455;52.710;6.502;2023-04-24T01:29:48;4.53;;;2.78;;
52554;SDS011;38455;52.710;6.502;2023-04-24T01:32:16;3.38;;;3.08;;
52554;SDS011;38455;52.710;6.502;2023-04-24T01:34:42;2.70;;;2.50;;
52554;SDS011;38455;52.710;6.502;2023-04-24T01:37:08;3.42;;;3.13;;
52554;SDS011;38455;52.710;6.502;2023-04-24T01:39:34;5.47;;;3.17;;
52554;SDS011;38455;52.710;6.502;2023-04-24T01:42:00;3.75;;;3.40;;
52554;SDS011;38455;52.710;6.502;2023-04-24T01:44:27;3.50;;;3.20;;
52554;SDS011;38455;52.710;6.502;2023-04-24T01:46:53;4.53;;;3.25;;
52554;SDS011;38455;52.710;6.502;2023-04-24T01:49:20;3.25;;;2.95;;
52554;SDS011;38455;52.710;6.502;2023-04-24T01:51:46;3.80;;;3.47;;
52554;SDS011;38455;52.710;6.502;2023-04-24T01:54:12;6.15;;;3.17;;
52554;SDS011;38455;52.710;6.502;2023-04-24T01:56:39;3.88;;;3.47;;
52554;SDS011;38455;52.710;6.502;2023-04-24T01:59:07;4.22;;;3.83;;
52554;SDS011;38455;52.710;6.502;2023-04-24T02:01:36;6.10;;;4.20;;
52554;SDS011;38455;52.710;6.502;2023-04-24T02:04:02;4.82;;;3.80;;
52554;SDS011;38455;52.710;6.502;2023-04-24T02:06:28;4.78;;;4.22;;
52554;SDS011;38455;52.710;6.502;2023-04-24T02:08:56;4.97;;;4.32;;
52554;SDS011;38455;52.710;6.502;2023-04-24T02:11:25;5.70;;;4.68;;
52554;SDS011;38455;52.710;6.502;2023-04-24T02:13:50;8.13;;;6.00;;
52554;SDS011;38455;52.710;6.502;2023-04-24T02:16:17;5.90;;;5.13;;
52554;SDS011;38455;52.710;6.502;2023-04-24T02:18:42;5.20;;;4.70;;
52554;SDS011;38455;52.710;6.502;2023-04-24T02:21:08;5.03;;;4.53;;
52554;SDS011;38455;52.710;6.502;2023-04-24T02:23:34;8.80;;;5.53;;
52554;SDS011;38455;52.710;6.502;2023-04-24T02:26:00;5.28;;;4.60;;
52554;SDS011;38455;52.710;6.502;2023-04-24T02:28:25;5.95;;;5.10;;
52554;SDS011;38455;52.710;6.502;2023-04-24T02:30:51;5.53;;;4.80;;
52554;SDS011;38455;52.710;6.502;2023-04-24T02:33:17;4.95;;;4.50;;
52554;SDS011;38455;52.710;6.502;2023-04-24T02:35:42;5.95;;;4.75;;
52554;SDS011;38455;52.710;6.502;2023-04-24T02:38:08;5.28;;;4.72;;
52554;SDS011;38455;52.710;6.502;2023-04-24T02:40:33;4.95;;;4.45;;
52554;SDS011;38455;52.710;6.502;2023-04-24T02:42:59;5.85;;;5.25;;
52554;SDS011;38455;52.710;6.502;2023-04-24T02:45:25;6.20;;;5.25;;
52554;SDS011;38455;52.710;6.502;2023-04-24T02:47:50;5.78;;;5.05;;
52554;SDS011;38455;52.710;6.502;2023-04-24T02:50:16;7.28;;;5.07;;
52554;SDS011;38455;52.710;6.502;2023-04-24T02:52:42;5.93;;;4.93;;
52554;SDS011;38455;52.710;6.502;2023-04-24T02:55:07;5.90;;;5.25;;
52554;SDS011;38455;52.710;6.502;2023-04-24T02:57:33;5.07;;;4.50;;
52554;SDS011;38455;52.710;6.502;2023-04-24T02:59:59;5.15;;;4.65;;
52554;SDS011;38455;52.710;6.502;2023-04-24T03:02:25;5.03;;;4.53;;
52554;SDS011;38455;52.710;6.502;2023-04-24T03:04:51;5.75;;;5.13;;
52554;SDS011;38455;52.710;6.502;2023-04-24T03:07:16;4.88;;;4.22;;
52554;SDS011;38455;52.710;6.502;2023-04-24T03:09:45;6.75;;;5.60;;
52554;SDS011;38455;52.710;6.502;2023-04-24T03:12:11;12.25;;;5.32;;
52554;SDS011;38455;52.710;6.502;2023-04-24T03:14:37;7.65;;;4.47;;
52554;SDS011;38455;52.710;6.502;2023-04-24T03:17:02;7.05;;;4.60;;
52554;SDS011;38455;52.710;6.502;2023-04-24T03:19:28;7.55;;;4.90;;
52554;SDS011;38455;52.710;6.502;2023-04-24T03:21:53;5.78;;;5.05;;
52554;SDS011;38455;52.710;6.502;2023-04-24T03:24:19;6.13;;;5.03;;
52554;SDS011;38455;52.710;6.502;2023-04-24T03:26:45;6.88;;;5.43;;
52554;SDS011;38455;52.710;6.502;2023-04-24T03:29:11;5.47;;;4.88;;
52554;SDS011;38455;52.710;6.502;2023-04-24T03:31:36;6.20;;;5.55;;
52554;SDS011;38455;52.710;6.502;2023-04-24T03:34:02;5.70;;;5.10;;
52554;SDS011;38455;52.710;6.502;2023-04-24T03:36:28;5.70;;;5.10;;
52554;SDS011;38455;52.710;6.502;2023-04-24T03:38:53;6.18;;;5.57;;
52554;SDS011;38455;52.710;6.502;2023-04-24T03:41:19;6.60;;;5.80;;
52554;SDS011;38455;52.710;6.502;2023-04-24T03:43:44;6.82;;;5.47;;
52554;SDS011;38455;52.710;6.502;2023-04-24T03:46:10;8.25;;;5.35;;
52554;SDS011;38455;52.710;6.502;2023-04-24T03:48:36;6.35;;;5.55;;
52554;SDS011;38455;52.710;6.502;2023-04-24T03:51:01;8.85;;;6.18;;
52554;SDS011;38455;52.710;6.502;2023-04-24T03:53:27;8.35;;;6.40;;
52554;SDS011;38455;52.710;6.502;2023-04-24T03:55:53;8.90;;;6.55;;
52554;SDS011;38455;52.710;6.502;2023-04-24T03:58:19;7.70;;;6.50;;
52554;SDS011;38455;52.710;6.502;2023-04-24T04:00:44;10.07;;;6.80;;
52554;SDS011;38455;52.710;6.502;2023-04-24T04:03:12;9.85;;;7.47;;
52554;SDS011;38455;52.710;6.502;2023-04-24T04:05:39;9.05;;;7.20;;
52554;SDS011;38455;52.710;6.502;2023-04-24T04:08:05;11.15;;;6.93;;
52554;SDS011;38455;52.710;6.502;2023-04-24T04:10:30;8.15;;;6.55;;
52554;SDS011;38455;52.710;6.502;2023-04-24T04:12:56;7.97;;;6.80;;
52554;SDS011;38455;52.710;6.502;2023-04-24T04:15:22;6.93;;;5.95;;
52554;SDS011;38455;52.710;6.502;2023-04-24T04:17:47;7.78;;;6.40;;
52554;SDS011;38455;52.710;6.502;2023-04-24T04:20:13;8.13;;;6.40;;
52554;SDS011;38455;52.710;6.502;2023-04-24T04:22:39;7.15;;;5.90;;
52554;SDS011;38455;52.710;6.502;2023-04-24T04:25:04;6.25;;;4.93;;
52554;SDS011;38455;52.710;6.502;2023-04-24T04:27:31;6.60;;;4.93;;
52554;SDS011;38455;52.710;6.502;2023-04-24T04:30:03;4.78;;;3.90;;
52554;SDS011;38455;52.710;6.502;2023-04-24T04:32:31;4.70;;;3.70;;
52554;SDS011;38455;52.710;6.502;2023-04-24T04:35:01;4.90;;;3.22;;
52554;SDS011;38455;52.710;6.502;2023-04-24T04:37:32;4.50;;;2.95;;
52554;SDS011;38455;52.710;6.502;2023-04-24T04:39:58;4.22;;;3.03;;
52554;SDS011;38455;52.710;6.502;2023-04-24T04:42:24;4.22;;;3.10;;
52554;SDS011;38455;52.710;6.502;2023-04-24T04:44:51;3.95;;;3.20;;
52554;SDS011;38455;52.710;6.502;2023-04-24T04:47:17;4.15;;;2.95;;
52554;SDS011;38455;52.710;6.502;2023-04-24T04:49:45;5.60;;;3.28;;
52554;SDS011;38455;52.710;6.502;2023-04-24T04:52:10;4.47;;;3.22;;
52554;SDS011;38455;52.710;6.502;2023-04-24T04:54:36;5.07;;;3.83;;
52554;SDS011;38455;52.710;6.502;2023-04-24T04:57:01;5.70;;;3.78;;
52554;SDS011;38455;52.710;6.502;2023-04-24T04:59:27;4.47;;;3.35;;
52554;SDS011;38455;52.710;6.502;2023-04-24T05:01:53;5.55;;;4.43;;
52554;SDS011;38455;52.710;6.502;2023-04-24T05:04:18;6.57;;;4.07;;
52554;SDS011;38455;52.710;6.502;2023-04-24T05:06:44;7.45;;;4.30;;
52554;SDS011;38455;52.710;6.502;2023-04-24T05:09:09;5.38;;;3.78;;
52554;SDS011;38455;52.710;6.502;2023-04-24T05:11:35;4.95;;;3.75;;
52554;SDS011;38455;52.710;6.502;2023-04-24T05:14:01;5.13;;;4.00;;
52554;SDS011;38455;52.710;6.502;2023-04-24T05:16:26;6.38;;;4.32;;
52554;SDS011;38455;52.710;6.502;2023-04-24T05:18:52;6.22;;;4.80;;
52554;SDS011;38455;52.710;6.502;2023-04-24T05:21:18;6.22;;;4.30;;
52554;SDS011;38455;52.710;6.502;2023-04-24T05:23:43;7.20;;;4.80;;
52554;SDS011;38455;52.710;6.502;2023-04-24T05:26:09;5.57;;;3.72;;
52554;SDS011;38455;52.710;6.502;2023-04-24T05:28:34;5.80;;;4.28;;
52554;SDS011;38455;52.710;6.502;2023-04-24T05:31:01;5.65;;;2.88;;
52554;SDS011;38455;52.710;6.502;2023-04-24T05:33:27;4.40;;;2.50;;
52554;SDS011;38455;52.710;6.502;2023-04-24T05:35:53;3.40;;;1.95;;
52554;SDS011;38455;52.710;6.502;2023-04-24T05:38:19;1.90;;;1.40;;
52554;SDS011;38455;52.710;6.502;2023-04-24T05:40:45;1.55;;;1.10;;
52554;SDS011;38455;52.710;6.502;2023-04-24T05:43:11;2.22;;;1.30;;
52554;SDS011;38455;52.710;6.502;2023-04-24T05:45:37;3.08;;;1.88;;
52554;SDS011;38455;52.710;6.502;2023-04-24T05:48:03;3.10;;;1.48;;
52554;SDS011;38455;52.710;6.502;2023-04-24T05:50:29;1.77;;;1.38;;
52554;SDS011;38455;52.710;6.502;2023-04-24T05:52:55;4.68;;;2.15;;
52554;SDS011;38455;52.710;6.502;2023-04-24T05:55:23;7.30;;;3.00;;
52554;SDS011;38455;52.710;6.502;2023-04-24T05:57:50;4.70;;;2.40;;
52554;SDS011;38455;52.710;6.502;2023-04-24T06:00:15;8.80;;;2.78;;
52554;SDS011;38455;52.710;6.502;2023-04-24T06:02:42;9.52;;;3.47;;
52554;SDS011;38455;52.710;6.502;2023-04-24T06:05:08;8.98;;;4.88;;
52554;SDS011;38455;52.710;6.502;2023-04-24T06:07:34;8.60;;;4.10;;
52554;SDS011;38455;52.710;6.502;2023-04-24T06:10:00;11.90;;;4.28;;
52554;SDS011;38455;52.710;6.502;2023-04-24T06:12:26;9.57;;;4.95;;
52554;SDS011;38455;52.710;6.502;2023-04-24T06:14:52;11.40;;;5.85;;
52554;SDS011;38455;52.710;6.502;2023-04-24T06:17:19;16.60;;;7.43;;
52554;SDS011;38455;52.710;6.502;2023-04-24T06:19:45;18.45;;;8.00;;
52554;SDS011;38455;52.710;6.502;2023-04-24T06:22:10;15.13;;;7.75;;
52554;SDS011;38455;52.710;6.502;2023-04-24T06:24:36;20.83;;;8.02;;
52554;SDS011;38455;52.710;6.502;2023-04-24T06:27:01;15.93;;;7.68;;
52554;SDS011;38455;52.710;6.502;2023-04-24T06:29:27;12.95;;;6.53;;
52554;SDS011;38455;52.710;6.502;2023-04-24T06:31:53;7.22;;;4.72;;
52554;SDS011;38455;52.710;6.502;2023-04-24T06:34:19;7.30;;;3.30;;
52554;SDS011;38455;52.710;6.502;2023-04-24T06:36:46;9.85;;;3.58;;
52554;SDS011;38455;52.710;6.502;2023-04-24T06:39:12;8.35;;;3.25;;
52554;SDS011;38455;52.710;6.502;2023-04-24T06:41:37;6.38;;;2.70;;
52554;SDS011;38455;52.710;6.502;2023-04-24T06:44:04;7.60;;;4.03;;
52554;SDS011;38455;52.710;6.502;2023-04-24T06:46:30;9.88;;;5.03;;
52554;SDS011;38455;52.710;6.502;2023-04-24T06:48:56;10.93;;;4.68;;
52554;SDS011;38455;52.710;6.502;2023-04-24T06:51:25;11.45;;;5.60;;
52554;SDS011;38455;52.710;6.502;2023-04-24T06:53:52;16.63;;;6.07;;
52554;SDS011;38455;52.710;6.502;2023-04-24T06:56:18;14.60;;;5.50;;
52554;SDS011;38455;52.710;6.502;2023-04-24T06:58:45;10.50;;;5.97;;
52554;SDS011;38455;52.710;6.502;2023-04-24T07:01:11;8.13;;;4.63;;
52554;SDS011;38455;52.710;6.502;2023-04-24T07:03:37;15.32;;;5.30;;
52554;SDS011;38455;52.710;6.502;2023-04-24T07:06:02;7.78;;;4.43;;
52554;SDS011;38455;52.710;6.502;2023-04-24T07:08:29;7.95;;;4.13;;
52554;SDS011;38455;52.710;6.502;2023-04-24T07:10:58;12.15;;;4.60;;
52554;SDS011;38455;52.710;6.502;2023-04-24T07:13:24;15.65;;;5.57;;
52554;SDS011;38455;52.710;6.502;2023-04-24T07:15:50;9.40;;;5.45;;
52554;SDS011;38455;52.710;6.502;2023-04-24T07:18:17;9.80;;;4.40;;
52554;SDS011;38455;52.710;6.502;2023-04-24T07:20:43;14.82;;;6.05;;
52554;SDS011;38455;52.710;6.502;2023-04-24T07:23:09;14.05;;;6.00;;
52554;SDS011;38455;52.710;6.502;2023-04-24T07:25:34;12.77;;;6.15;;
52554;SDS011;38455;52.710;6.502;2023-04-24T07:28:00;12.40;;;6.45;;
52554;SDS011;38455;52.710;6.502;2023-04-24T07:30:26;11.82;;;6.72;;
52554;SDS011;38455;52.710;6.502;2023-04-24T07:32:53;15.75;;;6.57;;
52554;SDS011;38455;52.710;6.502;2023-04-24T07:35:20;8.30;;;5.30;;
52554;SDS011;38455;52.710;6.502;2023-04-24T07:37:45;16.20;;;6.35;;
52554;SDS011;38455;52.710;6.502;2023-04-24T07:40:12;11.80;;;5.68;;
52554;SDS011;38455;52.710;6.502;2023-04-24T07:42:38;10.82;;;5.55;;
52554;SDS011;38455;52.710;6.502;2023-04-24T07:45:04;14.02;;;5.53;;
52554;SDS011;38455;52.710;6.502;2023-04-24T07:47:30;11.27;;;5.90;;
52554;SDS011;38455;52.710;6.502;2023-04-24T07:49:56;11.15;;;6.32;;
52554;SDS011;38455;52.710;6.502;2023-04-24T07:52:22;9.35;;;5.40;;
52554;SDS011;38455;52.710;6.502;2023-04-24T07:54:48;17.17;;;6.22;;
52554;SDS011;38455;52.710;6.502;2023-04-24T07:57:15;8.25;;;5.05;;
52554;SDS011;38455;52.710;6.502;2023-04-24T07:59:41;16.23;;;6.13;;
52554;SDS011;38455;52.710;6.502;2023-04-24T08:02:06;10.70;;;5.95;;
52554;SDS011;38455;52.710;6.502;2023-04-24T08:04:32;6.13;;;3.63;;
52554;SDS011;38455;52.710;6.502;2023-04-24T08:06:58;7.10;;;4.07;;
52554;SDS011;38455;52.710;6.502;2023-04-24T08:09:24;10.68;;;5.07;;
52554;SDS011;38455;52.710;6.502;2023-04-24T08:11:50;6.28;;;3.50;;
52554;SDS011;38455;52.710;6.502;2023-04-24T08:14:15;6.65;;;3.38;;
52554;SDS011;38455;52.710;6.502;2023-04-24T08:16:41;4.78;;;2.80;;
52554;SDS011;38455;52.710;6.502;2023-04-24T08:19:07;5.68;;;3.40;;
52554;SDS011;38455;52.710;6.502;2023-04-24T08:21:33;7.78;;;3.38;;
52554;SDS011;38455;52.710;6.502;2023-04-24T08:23:58;6.07;;;3.85;;
52554;SDS011;38455;52.710;6.502;2023-04-24T08:26:24;8.55;;;4.15;;
52554;SDS011;38455;52.710;6.502;2023-04-24T08:28:49;10.30;;;5.57;;
52554;SDS011;38455;52.710;6.502;2023-04-24T08:31:15;13.48;;;5.55;;
52554;SDS011;38455;52.710;6.502;2023-04-24T08:33:41;11.85;;;5.53;;
52554;SDS011;38455;52.710;6.502;2023-04-24T08:36:09;13.77;;;6.50;;
52554;SDS011;38455;52.710;6.502;2023-04-24T08:38:35;19.00;;;7.10;;
52554;SDS011;38455;52.710;6.502;2023-04-24T08:41:01;21.60;;;8.73;;
52554;SDS011;38455;52.710;6.502;2023-04-24T08:43:27;15.55;;;7.50;;
52554;SDS011;38455;52.710;6.502;2023-04-24T08:45:53;16.75;;;9.95;;
52554;SDS011;38455;52.710;6.502;2023-04-24T08:48:21;22.95;;;10.25;;
52554;SDS011;38455;52.710;6.502;2023-04-24T08:50:48;21.33;;;11.05;;
52554;SDS011;38455;52.710;6.502;2023-04-24T08:53:15;22.38;;;13.45;;
52554;SDS011;38455;52.710;6.502;2023-04-24T08:55:43;21.13;;;12.00;;
52554;SDS011;38455;52.710;6.502;2023-04-24T08:58:12;28.10;;;13.55;;
52554;SDS011;38455;52.710;6.502;2023-04-24T09:00:38;25.52;;;13.35;;
52554;SDS011;38455;52.710;6.502;2023-04-24T09:03:05;35.78;;;14.95;;
52554;SDS011;38455;52.710;6.502;2023-04-24T09:05:31;28.33;;;14.70;;
52554;SDS011;38455;52.710;6.502;2023-04-24T09:07:58;27.02;;;14.48;;
52554;SDS011;38455;52.710;6.502;2023-04-24T09:10:26;32.33;;;16.45;;
52554;SDS011;38455;52.710;6.502;2023-04-24T09:12:55;31.35;;;17.25;;
52554;SDS011;38455;52.710;6.502;2023-04-24T09:15:24;28.45;;;15.15;;
52554;SDS011;38455;52.710;6.502;2023-04-24T09:17:49;32.88;;;14.52;;
52554;SDS011;38455;52.710;6.502;2023-04-24T09:20:15;27.35;;;13.63;;
52554;SDS011;38455;52.710;6.502;2023-04-24T09:22:41;26.67;;;13.43;;
52554;SDS011;38455;52.710;6.502;2023-04-24T09:25:09;29.60;;;14.20;;
52554;SDS011;38455;52.710;6.502;2023-04-24T09:27:38;25.02;;;13.68;;
52554;SDS011;38455;52.710;6.502;2023-04-24T09:30:09;24.30;;;12.60;;
52554;SDS011;38455;52.710;6.502;2023-04-24T09:32:35;24.25;;;13.98;;
52554;SDS011;38455;52.710;6.502;2023-04-24T09:37:40;28.02;;;14.85;;
52554;SDS011;38455;52.710;6.502;2023-04-24T09:40:16;37.90;;;15.23;;
52554;SDS011;38455;52.710;6.502;2023-04-24T09:42:44;30.40;;;14.40;;
52554;SDS011;38455;52.710;6.502;2023-04-24T09:45:16;37.97;;;15.77;;
52554;SDS011;38455;52.710;6.502;2023-04-24T09:47:41;20.83;;;13.02;;
52554;SDS011;38455;52.710;6.502;2023-04-24T09:50:11;29.73;;;12.95;;
52554;SDS011;38455;52.710;6.502;2023-04-24T09:52:47;28.52;;;14.40;;
52554;SDS011;38455;52.710;6.502;2023-04-24T09:57:50;21.58;;;10.35;;
52554;SDS011;38455;52.710;6.502;2023-04-24T10:00:26;18.38;;;8.05;;
52554;SDS011;38455;52.710;6.502;2023-04-24T10:03:00;24.70;;;10.70;;
52554;SDS011;38455;52.710;6.502;2023-04-24T10:05:31;22.17;;;9.45;;
52554;SDS011;38455;52.710;6.502;2023-04-24T10:08:02;20.42;;;9.30;;
52554;SDS011;38455;52.710;6.502;2023-04-24T10:10:33;15.02;;;8.05;;
52554;SDS011;38455;52.710;6.502;2023-04-24T10:13:01;15.13;;;8.45;;
52554;SDS011;38455;52.710;6.502;2023-04-24T10:15:28;13.38;;;7.32;;
52554;SDS011;38455;52.710;6.502;2023-04-24T10:17:54;17.92;;;7.82;;
52554;SDS011;38455;52.710;6.502;2023-04-24T10:20:24;13.30;;;5.55;;
52554;SDS011;38455;52.710;6.502;2023-04-24T10:22:52;13.27;;;5.53;;
52554;SDS011;38455;52.710;6.502;2023-04-24T10:25:22;8.10;;;4.35;;
52554;SDS011;38455;52.710;6.502;2023-04-24T10:27:50;9.18;;;3.78;;
52554;SDS011;38455;52.710;6.502;2023-04-24T10:30:17;13.40;;;3.88;;
52554;SDS011;38455;52.710;6.502;2023-04-24T10:32:44;9.90;;;3.70;;
52554;SDS011;38455;52.710;6.502;2023-04-24T10:35:10;11.38;;;3.53;;
52554;SDS011;38455;52.710;6.502;2023-04-24T10:37:48;8.93;;;3.83;;
52554;SDS011;38455;52.710;6.502;2023-04-24T10:40:18;13.07;;;4.03;;
52554;SDS011;38455;52.710;6.502;2023-04-24T10:42:51;10.30;;;3.13;;
52554;SDS011;38455;52.710;6.502;2023-04-24T10:45:18;9.57;;;3.22;;
52554;SDS011;38455;52.710;6.502;2023-04-24T10:50:22;12.15;;;3.85;;
52554;SDS011;38455;52.710;6.502;2023-04-24T10:52:48;7.65;;;3.63;;
52554;SDS011;38455;52.710;6.502;2023-04-24T10:58:22;10.98;;;4.05;;
52554;SDS011;38455;52.710;6.502;2023-04-24T11:01:00;9.40;;;3.78;;
52554;SDS011;38455;52.710;6.502;2023-04-24T11:03:30;13.77;;;3.38;;
52554;SDS011;38455;52.710;6.502;2023-04-24T11:08:37;14.23;;;4.10;;
52554;SDS011;38455;52.710;6.502;2023-04-24T11:11:08;10.57;;;3.65;;
52554;SDS011;38455;52.710;6.502;2023-04-24T11:18:50;11.15;;;3.30;;
52554;SDS011;38455;52.710;6.502;2023-04-24T11:21:19;15.68;;;3.42;;
52554;SDS011;38455;52.710;6.502;2023-04-24T11:23:47;10.55;;;2.67;;
52554;SDS011;38455;52.710;6.502;2023-04-24T11:26:13;11.75;;;2.65;;
52554;SDS011;38455;52.710;6.502;2023-04-24T11:28:48;15.40;;;2.58;;
52554;SDS011;38455;52.710;6.502;2023-04-24T11:34:05;9.45;;;2.17;;
52554;SDS011;38455;52.710;6.502;2023-04-24T11:36:35;7.50;;;2.22;;
52554;SDS011;38455;52.710;6.502;2023-04-24T11:39:01;9.68;;;2.40;;
52554;SDS011;38455;52.710;6.502;2023-04-24T11:41:27;5.95;;;2.20;;
52554;SDS011;38455;52.710;6.502;2023-04-24T11:43:53;8.07;;;2.28;;
52554;SDS011;38455;52.710;6.502;2023-04-24T11:46:20;7.28;;;2.08;;
52554;SDS011;38455;52.710;6.502;2023-04-24T11:48:46;6.50;;;2.17;;
52554;SDS011;38455;52.710;6.502;2023-04-24T11:51:13;9.23;;;2.40;;
52554;SDS011;38455;52.710;6.502;2023-04-24T11:53:39;6.38;;;2.10;;
52554;SDS011;38455;52.710;6.502;2023-04-24T11:56:05;10.55;;;2.45;;
52554;SDS011;38455;52.710;6.502;2023-04-24T11:58:34;9.35;;;2.00;;
52554;SDS011;38455;52.710;6.502;2023-04-24T12:01:01;14.15;;;2.45;;
52554;SDS011;38455;52.710;6.502;2023-04-24T12:03:26;7.32;;;2.67;;
52554;SDS011;38455;52.710;6.502;2023-04-24T12:05:52;8.35;;;2.00;;
52554;SDS011;38455;52.710;6.502;2023-04-24T12:08:30;8.50;;;2.70;;
52554;SDS011;38455;52.710;6.502;2023-04-24T12:10:57;9.00;;;2.45;;
52554;SDS011;38455;52.710;6.502;2023-04-24T12:13:25;7.07;;;2.78;;
52554;SDS011;38455;52.710;6.502;2023-04-24T12:15:50;9.52;;;2.53;;
52554;SDS011;38455;52.710;6.502;2023-04-24T12:18:16;7.28;;;2.20;;
52554;SDS011;38455;52.710;6.502;2023-04-24T12:20:42;6.60;;;1.70;;
52554;SDS011;38455;52.710;6.502;2023-04-24T12:23:08;3.95;;;1.38;;
52554;SDS011;38455;52.710;6.502;2023-04-24T12:25:33;3.25;;;1.20;;
52554;SDS011;38455;52.710;6.502;2023-04-24T12:30:28;3.60;;;1.10;;
52554;SDS011;38455;52.710;6.502;2023-04-24T12:32:56;5.70;;;1.88;;
52554;SDS011;38455;52.710;6.502;2023-04-24T12:35:23;5.47;;;1.42;;
52554;SDS011;38455;52.710;6.502;2023-04-24T12:37:50;6.88;;;1.00;;
52554;SDS011;38455;52.710;6.502;2023-04-24T12:40:17;4.57;;;1.20;;
52554;SDS011;38455;52.710;6.502;2023-04-24T12:42:44;3.83;;;1.05;;
52554;SDS011;38455;52.710;6.502;2023-04-24T12:45:11;4.25;;;0.88;;
52554;SDS011;38455;52.710;6.502;2023-04-24T12:47:37;2.83;;;0.85;;
52554;SDS011;38455;52.710;6.502;2023-04-24T12:50:03;4.03;;;1.40;;
52554;SDS011;38455;52.710;6.502;2023-04-24T12:52:30;4.88;;;1.13;;
52554;SDS011;38455;52.710;6.502;2023-04-24T12:54:57;3.90;;;0.90;;
52554;SDS011;38455;52.710;6.502;2023-04-24T12:57:26;6.93;;;1.30;;
52554;SDS011;38455;52.710;6.502;2023-04-24T12:59:57;4.50;;;1.38;;
52554;SDS011;38455;52.710;6.502;2023-04-24T13:02:23;5.38;;;1.00;;
52554;SDS011;38455;52.710;6.502;2023-04-24T13:04:51;5.97;;;1.92;;
52554;SDS011;38455;52.710;6.502;2023-04-24T13:07:17;8.30;;;1.70;;
52554;SDS011;38455;52.710;6.502;2023-04-24T13:09:43;5.47;;;1.23;;
52554;SDS011;38455;52.710;6.502;2023-04-24T13:12:10;4.85;;;1.65;;
52554;SDS011;38455;52.710;6.502;2023-04-24T13:14:36;6.55;;;1.60;;
52554;SDS011;38455;52.710;6.502;2023-04-24T13:17:02;8.02;;;1.58;;
52554;SDS011;38455;52.710;6.502;2023-04-24T13:19:28;6.35;;;1.58;;
52554;SDS011;38455;52.710;6.502;2023-04-24T13:21:55;8.98;;;2.78;;
52554;SDS011;38455;52.710;6.502;2023-04-24T13:24:24;10.05;;;1.63;;
52554;SDS011;38455;52.710;6.502;2023-04-24T13:26:51;11.07;;;1.60;;
52554;SDS011;38455;52.710;6.502;2023-04-24T13:29:19;11.23;;;1.85;;
52554;SDS011;38455;52.710;6.502;2023-04-24T13:31:50;9.52;;;1.80;;
52554;SDS011;38455;52.710;6.502;2023-04-24T13:34:16;5.68;;;1.50;;
52554;SDS011;38455;52.710;6.502;2023-04-24T13:36:42;8.77;;;1.33;;
52554;SDS011;38455;52.710;6.502;2023-04-24T13:39:08;3.47;;;0.88;;
52554;SDS011;38455;52.710;6.502;2023-04-24T13:41:34;3.65;;;0.90;;
52554;SDS011;38455;52.710;6.502;2023-04-24T13:44:01;4.60;;;0.90;;
52554;SDS011;38455;52.710;6.502;2023-04-24T13:46:27;6.28;;;1.00;;
52554;SDS011;38455;52.710;6.502;2023-04-24T13:48:53;5.13;;;1.23;;
52554;SDS011;38455;52.710;6.502;2023-04-24T13:51:18;4.32;;;0.98;;
52554;SDS011;38455;52.710;6.502;2023-04-24T13:53:44;10.05;;;1.67;;
52554;SDS011;38455;52.710;6.502;2023-04-24T13:56:09;6.10;;;1.20;;
52554;SDS011;38455;52.710;6.502;2023-04-24T13:58:37;4.65;;;1.35;;
52554;SDS011;38455;52.710;6.502;2023-04-24T14:01:03;7.47;;;1.40;;
52554;SDS011;38455;52.710;6.502;2023-04-24T14:03:29;5.57;;;1.40;;
52554;SDS011;38455;52.710;6.502;2023-04-24T14:05:54;8.98;;;1.63;;
52554;SDS011;38455;52.710;6.502;2023-04-24T14:08:20;10.02;;;1.60;;
52554;SDS011;38455;52.710;6.502;2023-04-24T14:10:46;7.18;;;1.73;;
52554;SDS011;38455;52.710;6.502;2023-04-24T14:13:11;10.55;;;2.00;;
52554;SDS011;38455;52.710;6.502;2023-04-24T14:15:37;9.82;;;1.75;;
52554;SDS011;38455;52.710;6.502;2023-04-24T14:18:03;11.68;;;2.47;;
52554;SDS011;38455;52.710;6.502;2023-04-24T14:20:29;11.15;;;2.25;;
52554;SDS011;38455;52.710;6.502;2023-04-24T14:22:54;8.18;;;1.92;;
52554;SDS011;38455;52.710;6.502;2023-04-24T14:25:20;8.80;;;1.98;;
52554;SDS011;38455;52.710;6.502;2023-04-24T14:27:47;8.02;;;1.70;;
52554;SDS011;38455;52.710;6.502;2023-04-24T14:30:13;10.15;;;2.28;;
52554;SDS011;38455;52.710;6.502;2023-04-24T14:32:40;10.95;;;2.22;;
52554;SDS011;38455;52.710;6.502;2023-04-24T14:35:06;12.48;;;2.47;;
52554;SDS011;38455;52.710;6.502;2023-04-24T14:37:32;6.80;;;2.40;;
52554;SDS011;38455;52.710;6.502;2023-04-24T14:39:57;13.02;;;2.45;;
52554;SDS011;38455;52.710;6.502;2023-04-24T14:42:23;10.43;;;2.47;;
52554;SDS011;38455;52.710;6.502;2023-04-24T14:44:49;9.32;;;2.25;;
52554;SDS011;38455;52.710;6.502;2023-04-24T14:47:15;13.75;;;3.17;;
52554;SDS011;38455;52.710;6.502;2023-04-24T14:49:42;10.20;;;2.50;;
52554;SDS011;38455;52.710;6.502;2023-04-24T14:52:09;8.80;;;2.20;;
52554;SDS011;38455;52.710;6.502;2023-04-24T14:54:35;10.63;;;2.63;;
52554;SDS011;38455;52.710;6.502;2023-04-24T14:57:01;11.45;;;2.55;;
52554;SDS011;38455;52.710;6.502;2023-04-24T14:59:29;10.93;;;2.25;;
52554;SDS011;38455;52.710;6.502;2023-04-24T15:01:56;7.78;;;2.33;;
52554;SDS011;38455;52.710;6.502;2023-04-24T15:04:25;9.73;;;2.08;;